createdAt,value
2019-03-06T00:00:58.214Z,8.00
2019-03-06T00:03:30.893Z,7.90
2019-03-06T00:06:03.245Z,7.90
2019-03-06T00:08:35.630Z,7.90
2019-03-06T00:11:08.318Z,7.90
2019-03-06T00:13:40.727Z,7.90
2019-03-06T00:16:13.322Z,7.70
2019-03-06T00:18:45.749Z,7.70
2019-03-06T00:21:18.257Z,7.60
2019-03-06T00:23:50.780Z,7.60
2019-03-06T00:26:23.301Z,7.60
2019-03-06T00:28:55.665Z,7.50
2019-03-06T00:31:28.509Z,7.50
2019-03-06T00:34:00.929Z,7.60
2019-03-06T00:36:34.363Z,7.50
2019-03-06T00:39:09.155Z,7.40
2019-03-06T00:41:46.826Z,7.40
2019-03-06T00:44:19.354Z,7.40
2019-03-06T00:46:51.758Z,7.50
2019-03-06T00:49:24.116Z,7.50
2019-03-06T00:51:56.807Z,7.40
2019-03-06T00:54:29.072Z,7.40
2019-03-06T00:57:01.501Z,7.40
2019-03-06T00:59:33.801Z,7.30
2019-03-06T01:02:06.414Z,7.30
2019-03-06T01:04:38.882Z,7.30
2019-03-06T01:07:11.290Z,7.20
2019-03-06T01:09:43.663Z,7.20
2019-03-06T01:12:16.565Z,7.30
2019-03-06T01:14:49.077Z,7.30
2019-03-06T01:17:21.449Z,7.30
2019-03-06T01:19:53.855Z,7.30
2019-03-06T01:22:26.342Z,7.10
2019-03-06T01:24:58.626Z,7.10
2019-03-06T01:27:30.965Z,7.10
2019-03-06T01:30:03.479Z,7.10
2019-03-06T01:32:36.199Z,7.10
2019-03-06T01:35:28.054Z,7.00
2019-03-06T01:38:13.902Z,6.90
2019-03-06T01:41:01.377Z,6.90
2019-03-06T01:43:47.439Z,6.90
2019-03-06T01:46:20.208Z,6.90
2019-03-06T01:48:52.667Z,7.00
2019-03-06T01:51:25.160Z,6.90
2019-03-06T01:53:57.771Z,6.80
2019-03-06T01:56:30.035Z,6.80
2019-03-06T01:59:02.395Z,6.80
2019-03-06T02:01:35.548Z,6.80
2019-03-06T02:04:08.270Z,6.80
2019-03-06T02:06:40.973Z,6.70
2019-03-06T02:09:16.008Z,6.70
2019-03-06T02:11:48.522Z,6.70
2019-03-06T02:14:20.880Z,6.70
2019-03-06T02:16:53.418Z,6.70
2019-03-06T02:19:25.821Z,6.70
2019-03-06T02:22:17.001Z,6.60
2019-03-06T02:24:49.178Z,6.70
2019-03-06T02:27:21.879Z,6.70
2019-03-06T02:29:54.158Z,6.70
2019-03-06T02:32:26.836Z,6.70
2019-03-06T02:35:01.436Z,6.70
2019-03-06T02:37:34.148Z,6.70
2019-03-06T02:40:07.135Z,6.70
2019-03-06T02:42:39.709Z,6.60
2019-03-06T02:45:13.967Z,6.60
2019-03-06T02:47:46.314Z,6.60
2019-03-06T02:50:19.765Z,6.50
2019-03-06T02:52:52.816Z,6.50
2019-03-06T02:55:25.476Z,6.50
2019-03-06T02:58:06.339Z,6.50
2019-03-06T03:01:10.311Z,6.50
2019-03-06T03:04:16.862Z,6.50
2019-03-06T03:06:52.737Z,6.50
2019-03-06T03:09:25.051Z,6.60
2019-03-06T03:11:57.687Z,6.50
2019-03-06T03:14:30.250Z,6.50
2019-03-06T03:17:02.968Z,6.50
2019-03-06T03:19:35.505Z,6.50
2019-03-06T03:22:08.220Z,6.50
2019-03-06T03:24:40.476Z,6.50
2019-03-06T03:27:12.848Z,6.50
2019-03-06T03:29:45.239Z,6.50
2019-03-06T03:32:17.699Z,6.50
2019-03-06T03:34:49.982Z,6.40
2019-03-06T03:37:22.406Z,6.40
2019-03-06T03:39:54.712Z,6.30
2019-03-06T03:42:27.779Z,6.30
2019-03-06T03:45:00.535Z,6.30
2019-03-06T03:47:32.943Z,6.40
2019-03-06T03:50:05.583Z,6.40
2019-03-06T03:52:37.873Z,6.50
2019-03-06T03:55:10.815Z,6.50
2019-03-06T03:57:43.162Z,6.50
2019-03-06T04:00:16.534Z,6.50
2019-03-06T04:02:49.173Z,6.50
2019-03-06T04:05:21.534Z,6.50
2019-03-06T04:07:54.420Z,6.50
2019-03-06T04:10:26.889Z,6.50
2019-03-06T04:12:59.362Z,6.40
2019-03-06T04:15:31.878Z,6.40
2019-03-06T04:18:04.322Z,6.30
2019-03-06T04:20:36.870Z,6.20
2019-03-06T04:23:09.053Z,6.20
2019-03-06T04:25:41.456Z,6.10
2019-03-06T04:28:13.948Z,6.20
2019-03-06T04:30:46.431Z,6.20
2019-03-06T04:33:18.842Z,6.20
2019-03-06T04:35:51.377Z,6.20
2019-03-06T04:38:24.007Z,6.20
2019-03-06T04:40:56.637Z,6.20
2019-03-06T04:43:29.272Z,6.20
2019-03-06T04:46:01.690Z,6.10
2019-03-06T04:48:33.949Z,6.10
2019-03-06T04:51:06.444Z,6.10
2019-03-06T04:53:38.961Z,6.20
2019-03-06T04:56:11.439Z,6.20
2019-03-06T04:58:43.708Z,6.20
2019-03-06T05:01:16.323Z,6.10
2019-03-06T05:03:48.843Z,6.00
2019-03-06T05:06:21.536Z,6.00
2019-03-06T05:08:53.886Z,6.00
2019-03-06T05:11:26.303Z,6.00
2019-03-06T05:13:58.700Z,6.00
2019-03-06T05:17:02.557Z,6.00
2019-03-06T05:19:34.755Z,6.10
2019-03-06T05:22:07.529Z,6.20
2019-03-06T05:24:39.767Z,6.20
2019-03-06T05:27:12.022Z,6.20
2019-03-06T05:29:44.336Z,6.20
2019-03-06T05:32:34.368Z,6.30
2019-03-06T05:35:15.121Z,6.40
2019-03-06T05:38:13.401Z,6.40
2019-03-06T05:40:45.880Z,6.50
2019-03-06T05:43:18.333Z,6.70
2019-03-06T05:45:51.186Z,7.00
2019-03-06T05:48:23.469Z,7.10
2019-03-06T05:50:55.802Z,7.30
2019-03-06T05:53:28.108Z,7.30
2019-03-06T05:56:00.524Z,7.30
2019-03-06T05:58:32.996Z,7.30
2019-03-06T06:01:05.397Z,7.50
2019-03-06T06:03:37.771Z,7.60
2019-03-06T06:06:10.252Z,7.70
2019-03-06T06:08:42.692Z,7.70
2019-03-06T06:11:14.932Z,7.70
2019-03-06T06:13:47.495Z,7.60
2019-03-06T06:16:20.043Z,7.70
2019-03-06T06:18:52.626Z,7.70
2019-03-06T06:21:55.158Z,7.80
2019-03-06T06:24:29.540Z,8.10
2019-03-06T06:27:02.041Z,8.30
2019-03-06T06:29:34.666Z,8.40
2019-03-06T06:32:07.287Z,8.60
2019-03-06T06:34:39.977Z,8.90
2019-03-06T06:37:12.556Z,9.40
2019-03-06T06:39:44.833Z,9.90
2019-03-06T06:42:17.373Z,10.20
2019-03-06T06:44:49.707Z,10.50
2019-03-06T06:47:22.251Z,10.80
2019-03-06T06:49:54.804Z,11.40
2019-03-06T06:53:13.788Z,11.70
2019-03-06T06:56:18.549Z,12.10
2019-03-06T06:59:23.601Z,12.50
2019-03-06T07:03:01.975Z,12.40
2019-03-06T07:05:51.352Z,12.00
2019-03-06T07:08:51.438Z,11.80
2019-03-06T07:11:48.575Z,11.70
2019-03-06T07:14:39.677Z,12.10
2019-03-06T07:17:29.956Z,12.60
2019-03-06T07:20:24.870Z,13.00
2019-03-06T07:23:05.839Z,13.40
2019-03-06T07:25:54.426Z,13.30
2019-03-06T07:28:42.567Z,13.00
2019-03-06T07:31:21.249Z,12.90
2019-03-06T07:34:07.973Z,13.20
2019-03-06T07:36:45.433Z,13.70
2019-03-06T07:39:32.168Z,14.40
2019-03-06T07:42:29.509Z,15.00
2019-03-06T07:46:00.446Z,15.50
2019-03-06T07:49:10.924Z,15.70
2019-03-06T07:52:17.143Z,16.20
2019-03-06T07:55:08.275Z,16.60
2019-03-06T07:58:34.732Z,17.00
2019-03-06T08:01:16.686Z,17.10
2019-03-06T08:04:13.773Z,16.80
2019-03-06T08:06:52.298Z,17.30
2019-03-06T08:09:24.991Z,18.20
2019-03-06T08:12:22.194Z,17.90
2019-03-06T08:15:16.867Z,17.70
2019-03-06T08:18:00.736Z,17.90
2019-03-06T08:20:50.552Z,18.50
2019-03-06T08:23:31.746Z,19.50
2019-03-06T08:26:04.474Z,19.80
2019-03-06T08:28:36.978Z,19.70
2019-03-06T08:31:18.989Z,20.30
2019-03-06T08:33:51.383Z,19.80
2019-03-06T08:36:24.169Z,19.70
2019-03-06T08:38:56.737Z,19.90
2019-03-06T08:41:29.288Z,20.20
2019-03-06T08:44:01.925Z,20.50
2019-03-06T08:46:53.125Z,20.30
2019-03-06T08:49:36.507Z,21.30
2019-03-06T08:52:39.868Z,22.20
2019-03-06T08:55:37.258Z,21.90
2019-03-06T08:58:28.391Z,22.40
2019-03-06T09:02:01.190Z,23.30
2019-03-06T09:04:51.986Z,21.70
2019-03-06T09:07:55.602Z,20.40
2019-03-06T09:10:46.986Z,20.00
2019-03-06T09:13:37.440Z,20.20
2019-03-06T09:16:27.292Z,19.80
2019-03-06T09:19:27.622Z,20.10
2019-03-06T09:22:17.622Z,20.50
2019-03-06T09:25:07.921Z,20.20
2019-03-06T09:27:54.087Z,19.60
2019-03-06T09:30:48.428Z,19.30
2019-03-06T09:33:26.622Z,19.00
2019-03-06T09:36:20.981Z,19.80
2019-03-06T09:39:07.465Z,19.30
2019-03-06T09:41:49.706Z,19.30
2019-03-06T09:44:27.875Z,19.30
2019-03-06T09:47:13.984Z,19.10
2019-03-06T09:49:56.491Z,18.70
2019-03-06T09:52:43.728Z,18.50
2019-03-06T09:55:33.524Z,18.70
2019-03-06T09:58:27.627Z,19.70
2019-03-06T10:01:13.584Z,20.10
2019-03-06T10:04:11.226Z,19.80
2019-03-06T10:07:02.788Z,19.60
2019-03-06T10:09:49.076Z,20.50
2019-03-06T10:12:47.288Z,20.40
2019-03-06T10:15:32.069Z,20.20
2019-03-06T10:18:22.121Z,19.10
2019-03-06T10:20:54.701Z,19.80
2019-03-06T10:23:27.306Z,19.10
2019-03-06T10:25:59.798Z,18.80
2019-03-06T10:28:32.191Z,18.80
2019-03-06T10:31:05.183Z,19.20
2019-03-06T10:33:38.060Z,18.80
2019-03-06T10:36:10.877Z,18.80
2019-03-06T10:38:43.761Z,18.80
2019-03-06T10:41:16.391Z,18.40
2019-03-06T10:43:49.626Z,17.80
2019-03-06T10:46:22.454Z,18.40
2019-03-06T10:48:55.141Z,18.00
2019-03-06T10:51:28.101Z,18.40
2019-03-06T10:54:00.924Z,18.70
2019-03-06T10:56:33.472Z,18.50
2019-03-06T10:59:06.550Z,18.50
2019-03-06T11:01:39.210Z,17.90
2019-03-06T11:04:30.919Z,18.30
2019-03-06T11:07:03.351Z,17.70
2019-03-06T11:09:36.173Z,17.20
2019-03-06T11:12:09.437Z,18.00
2019-03-06T11:14:44.468Z,18.50
2019-03-06T11:17:16.805Z,18.60
2019-03-06T11:19:49.385Z,17.70
2019-03-06T11:22:22.087Z,17.20
2019-03-06T11:24:54.836Z,17.50
2019-03-06T11:27:27.509Z,17.10
2019-03-06T11:30:00.007Z,16.70
2019-03-06T11:32:32.957Z,16.60
2019-03-06T11:35:06.255Z,16.90
2019-03-06T11:37:39.067Z,16.80
2019-03-06T11:40:12.559Z,16.80
2019-03-06T11:42:45.315Z,16.60
2019-03-06T11:45:19.553Z,16.50
2019-03-06T11:47:52.015Z,16.40
2019-03-06T11:50:25.219Z,16.20
2019-03-06T11:52:57.563Z,16.10
2019-03-06T11:55:31.019Z,15.80
2019-03-06T11:58:03.765Z,15.70
2019-03-06T12:00:42.254Z,15.70
2019-03-06T12:03:18.103Z,15.60
2019-03-06T12:05:51.343Z,15.40
2019-03-06T12:08:23.835Z,15.80
2019-03-06T12:10:56.423Z,15.80
2019-03-06T12:13:28.838Z,15.10
2019-03-06T12:16:01.376Z,15.10
2019-03-06T12:18:34.206Z,14.90
2019-03-06T12:21:06.936Z,14.70
2019-03-06T12:23:39.461Z,14.50
2019-03-06T12:26:11.809Z,14.60
2019-03-06T12:28:44.496Z,14.90
2019-03-06T12:31:17.065Z,14.90
2019-03-06T12:33:49.912Z,14.80
2019-03-06T12:36:22.954Z,14.80
2019-03-06T12:38:59.012Z,14.80
2019-03-06T12:41:31.424Z,15.10
2019-03-06T12:44:10.158Z,14.80
2019-03-06T12:46:38.139Z,14.80
2019-03-06T12:49:13.082Z,14.50
2019-03-06T12:51:53.998Z,14.60
2019-03-06T12:54:19.808Z,14.50
2019-03-06T12:56:52.588Z,14.40
2019-03-06T12:59:24.926Z,14.20
2019-03-06T13:01:57.381Z,14.10
2019-03-06T13:04:32.109Z,13.90
2019-03-06T13:07:04.688Z,14.00
2019-03-06T13:09:37.663Z,14.00
2019-03-06T13:12:10.980Z,14.00
2019-03-06T13:14:43.548Z,13.90
2019-03-06T13:17:16.475Z,13.80
2019-03-06T13:19:49.125Z,13.80
2019-03-06T13:22:21.780Z,13.80
2019-03-06T13:24:54.378Z,13.80
2019-03-06T13:27:26.776Z,13.60
2019-03-06T13:29:59.362Z,13.60
2019-03-06T13:32:57.806Z,13.70
2019-03-06T13:35:30.798Z,13.60
2019-03-06T13:38:03.598Z,13.60
2019-03-06T13:40:36.145Z,13.70
2019-03-06T13:43:09.047Z,13.70
2019-03-06T13:45:41.894Z,13.70
2019-03-06T13:48:14.222Z,13.70
2019-03-06T13:50:46.672Z,13.60
2019-03-06T13:53:20.567Z,13.70
2019-03-06T13:55:53.157Z,13.50
2019-03-06T13:58:25.875Z,13.70
2019-03-06T14:00:58.635Z,13.60
2019-03-06T14:03:31.690Z,13.60
2019-03-06T14:06:04.298Z,13.60
2019-03-06T14:08:37.155Z,13.60
2019-03-06T14:11:09.990Z,13.50
2019-03-06T14:13:42.393Z,13.60
2019-03-06T14:16:14.897Z,13.50
2019-03-06T14:18:47.399Z,13.50
2019-03-06T14:21:19.855Z,13.60
2019-03-06T14:23:52.387Z,13.50
2019-03-06T14:26:25.010Z,13.40
2019-03-06T14:28:57.852Z,13.50
2019-03-06T14:31:30.440Z,13.60
2019-03-06T14:34:02.948Z,13.60
2019-03-06T14:36:35.560Z,13.60
2019-03-06T14:39:23.440Z,13.40
2019-03-06T14:41:57.367Z,13.40
2019-03-06T14:44:30.095Z,13.40
2019-03-06T14:47:02.520Z,13.40
2019-03-06T14:49:35.235Z,13.50
2019-03-06T14:52:08.190Z,13.50
2019-03-06T14:54:41.121Z,13.60
2019-03-06T14:57:13.703Z,13.60
2019-03-06T14:59:46.154Z,13.60
2019-03-06T15:02:18.797Z,13.60
2019-03-06T15:04:51.465Z,13.60
2019-03-06T15:07:23.980Z,13.60
2019-03-06T15:10:15.492Z,13.60
2019-03-06T15:12:48.270Z,13.60
2019-03-06T15:15:20.964Z,13.60
2019-03-06T15:17:53.387Z,13.70
2019-03-06T15:20:26.498Z,13.70
2019-03-06T15:22:59.371Z,13.70
2019-03-06T15:25:32.326Z,13.60
2019-03-06T15:28:04.743Z,13.50
2019-03-06T15:30:37.441Z,13.50
2019-03-06T15:33:10.160Z,13.50
2019-03-06T15:35:42.957Z,13.50
2019-03-06T15:38:15.674Z,13.50
2019-03-06T15:40:48.133Z,13.50
2019-03-06T15:43:20.829Z,13.50
2019-03-06T15:45:53.409Z,13.50
2019-03-06T15:48:26.124Z,13.40
2019-03-06T15:50:58.485Z,13.40
2019-03-06T15:53:31.267Z,13.40
2019-03-06T15:56:03.902Z,13.40
2019-03-06T15:58:37.070Z,13.40
2019-03-06T16:01:10.293Z,13.30
2019-03-06T16:03:42.730Z,13.30
2019-03-06T16:06:20.297Z,13.20
2019-03-06T16:08:49.874Z,13.20
2019-03-06T16:11:22.573Z,13.20
2019-03-06T16:13:54.988Z,13.20
2019-03-06T16:16:27.856Z,13.20
2019-03-06T16:19:00.481Z,13.20
2019-03-06T16:21:35.322Z,13.20
2019-03-06T16:24:09.757Z,13.20
2019-03-06T16:26:42.232Z,13.20
2019-03-06T16:29:14.857Z,13.10
2019-03-06T16:31:47.514Z,13.00
2019-03-06T16:34:20.548Z,13.00
2019-03-06T16:36:52.993Z,12.90
2019-03-06T16:39:25.734Z,12.90
2019-03-06T16:41:58.218Z,12.90
2019-03-06T16:44:30.586Z,12.80
2019-03-06T16:47:06.714Z,12.80
2019-03-06T16:49:37.542Z,12.90
2019-03-06T16:52:09.918Z,12.80
2019-03-06T16:54:42.494Z,12.80
2019-03-06T16:57:15.665Z,12.70
2019-03-06T16:59:48.481Z,12.70
2019-03-06T17:02:21.256Z,12.70
2019-03-06T17:04:53.967Z,12.70
2019-03-06T17:07:26.735Z,12.80
2019-03-06T17:09:59.310Z,12.70
2019-03-06T17:12:31.987Z,12.70
2019-03-06T17:15:04.801Z,12.70
2019-03-06T17:17:37.372Z,12.70
2019-03-06T17:20:10.515Z,12.60
2019-03-06T17:22:43.102Z,12.60
2019-03-06T17:25:16.242Z,12.60
2019-03-06T17:27:49.084Z,12.70
2019-03-06T17:30:23.897Z,12.60
2019-03-06T17:33:02.411Z,12.60
2019-03-06T17:35:35.079Z,12.60
2019-03-06T17:38:09.093Z,12.50
2019-03-06T17:40:41.917Z,12.50
2019-03-06T17:43:14.718Z,12.50
2019-03-06T17:45:47.948Z,12.50
2019-03-06T17:48:20.736Z,12.40
2019-03-06T17:50:53.234Z,12.40
2019-03-06T17:53:27.343Z,12.30
2019-03-06T17:56:00.050Z,12.30
2019-03-06T17:58:32.724Z,12.20
2019-03-06T18:01:12.133Z,12.20
2019-03-06T18:03:56.276Z,12.10
2019-03-06T18:06:28.663Z,12.00
2019-03-06T18:09:01.301Z,11.90
2019-03-06T18:11:52.446Z,11.90
2019-03-06T18:14:25.182Z,11.80
2019-03-06T18:16:57.572Z,11.70
2019-03-06T18:19:30.510Z,11.70
2019-03-06T18:22:03.389Z,11.80
2019-03-06T18:24:35.903Z,12.00
2019-03-06T18:27:08.960Z,11.90
2019-03-06T18:29:41.644Z,11.80
2019-03-06T18:32:14.820Z,11.70
2019-03-06T18:34:47.314Z,11.70
2019-03-06T18:37:20.478Z,11.70
2019-03-06T18:39:53.130Z,11.60
2019-03-06T18:42:25.930Z,11.60
2019-03-06T18:44:58.777Z,11.50
2019-03-06T18:47:31.312Z,11.30
2019-03-06T18:50:04.048Z,11.30
2019-03-06T18:52:36.896Z,11.40
2019-03-06T18:55:10.261Z,11.30
2019-03-06T18:57:42.981Z,11.30
2019-03-06T19:00:21.797Z,11.20
2019-03-06T19:02:54.972Z,11.10
2019-03-06T19:05:27.606Z,11.00
2019-03-06T19:08:00.317Z,11.00
2019-03-06T19:10:33.355Z,10.90
2019-03-06T19:13:06.090Z,10.90
2019-03-06T19:15:38.750Z,10.80
2019-03-06T19:18:11.768Z,10.70
2019-03-06T19:20:44.293Z,10.70
2019-03-06T19:23:17.058Z,10.70
2019-03-06T19:25:49.644Z,10.80
2019-03-06T19:28:22.053Z,10.70
2019-03-06T19:30:54.686Z,10.70
2019-03-06T19:33:27.106Z,10.80
2019-03-06T19:35:59.786Z,10.80
2019-03-06T19:38:32.587Z,10.70
2019-03-06T19:41:05.409Z,10.70
2019-03-06T19:43:37.867Z,10.60
2019-03-06T19:46:10.679Z,10.50
2019-03-06T19:48:43.268Z,10.50
2019-03-06T19:51:15.861Z,10.40
2019-03-06T19:53:48.362Z,10.30
2019-03-06T19:56:20.938Z,10.40
2019-03-06T19:58:53.603Z,10.20
2019-03-06T20:01:26.679Z,10.20
2019-03-06T20:03:59.053Z,10.10
2019-03-06T20:06:31.907Z,10.10
2019-03-06T20:09:05.953Z,10.10
2019-03-06T20:11:38.726Z,10.00
2019-03-06T20:14:11.466Z,10.00
2019-03-06T20:16:44.071Z,10.00
2019-03-06T20:19:16.547Z,9.90
2019-03-06T20:21:49.166Z,9.90
2019-03-06T20:24:21.696Z,9.90
2019-03-06T20:26:54.521Z,10.00
2019-03-06T20:29:27.065Z,9.90
2019-03-06T20:32:10.759Z,9.80
2019-03-06T20:34:43.358Z,9.90
2019-03-06T20:37:16.066Z,9.90
2019-03-06T20:39:59.467Z,9.80
2019-03-06T20:42:31.822Z,9.90
2019-03-06T20:45:04.499Z,9.80
2019-03-06T20:47:36.984Z,9.80
2019-03-06T20:50:10.248Z,9.80
2019-03-06T20:52:42.677Z,9.80
2019-03-06T20:55:15.997Z,9.70
2019-03-06T20:57:48.609Z,9.70
2019-03-06T21:00:22.684Z,9.70
2019-03-06T21:02:55.877Z,9.70
2019-03-06T21:05:28.481Z,9.70
2019-03-06T21:08:00.937Z,9.70
2019-03-06T21:10:33.563Z,9.80
2019-03-06T21:13:06.128Z,9.70
2019-03-06T21:15:38.501Z,9.80
2019-03-06T21:18:11.245Z,9.80
2019-03-06T21:20:43.888Z,9.70
2019-03-06T21:23:16.621Z,9.80
2019-03-06T21:25:49.593Z,9.70
2019-03-06T21:28:22.309Z,9.70
2019-03-06T21:30:55.238Z,9.70
2019-03-06T21:33:27.951Z,9.70
2019-03-06T21:36:00.801Z,9.70
2019-03-06T21:38:33.477Z,9.70
2019-03-06T21:41:06.105Z,9.70
2019-03-06T21:43:38.594Z,9.80
2019-03-06T21:46:10.971Z,9.80
2019-03-06T21:48:54.948Z,9.70
2019-03-06T21:51:27.437Z,9.70
2019-03-06T21:53:59.956Z,9.70
2019-03-06T21:56:32.330Z,9.70
2019-03-06T21:59:06.172Z,9.70
2019-03-06T22:01:38.729Z,9.70
2019-03-06T22:04:12.013Z,9.50
2019-03-06T22:06:44.379Z,9.50
2019-03-06T22:09:17.723Z,9.50
2019-03-06T22:11:50.360Z,9.50
2019-03-06T22:14:23.235Z,9.50
2019-03-06T22:16:55.868Z,9.50
2019-03-06T22:19:28.596Z,9.50
2019-03-06T22:22:00.883Z,9.50
2019-03-06T22:24:33.272Z,9.50
2019-03-06T22:27:06.136Z,9.40
2019-03-06T22:29:38.494Z,9.50
2019-03-06T22:32:11.489Z,9.40
2019-03-06T22:34:44.063Z,9.40
2019-03-06T22:37:16.511Z,9.50
2019-03-06T22:39:48.782Z,9.50
2019-03-06T22:42:21.441Z,9.50
2019-03-06T22:44:54.336Z,9.50
2019-03-06T22:47:27.017Z,9.40
2019-03-06T22:49:59.361Z,9.40
2019-03-06T22:52:31.728Z,9.40
2019-03-06T22:55:04.972Z,9.30
2019-03-06T22:57:37.581Z,9.40
2019-03-06T23:00:35.732Z,9.40
2019-03-06T23:03:08.393Z,9.40
2019-03-06T23:05:40.665Z,9.30
2019-03-06T23:08:13.540Z,9.40
2019-03-06T23:10:46.464Z,9.30
2019-03-06T23:13:18.887Z,9.30
2019-03-06T23:15:51.380Z,9.20
2019-03-06T23:18:23.763Z,9.20
2019-03-06T23:20:56.282Z,9.20
2019-03-06T23:23:28.680Z,9.20
2019-03-06T23:26:01.377Z,9.20
2019-03-06T23:28:33.699Z,9.20
2019-03-06T23:31:06.056Z,9.20
2019-03-06T23:33:38.460Z,9.20
2019-03-06T23:36:10.934Z,9.20
2019-03-06T23:38:44.118Z,9.20
2019-03-06T23:41:16.754Z,9.20
2019-03-06T23:43:49.160Z,9.20
2019-03-06T23:46:21.827Z,9.20
2019-03-06T23:48:54.568Z,9.20
2019-03-06T23:51:34.793Z,9.10
2019-03-06T23:54:07.264Z,9.10
2019-03-06T23:56:39.711Z,9.00
2019-03-06T23:59:11.949Z,9.00
